sensor_id;sensor_type;location;lat;lon;timestamp;P1;durP1;ratioP1;P2;durP2;ratioP2
10100;SDS011;5090;51.258;4.436;2023-11-19T00:00:16;5.87;;;3.23;;
10100;SDS011;5090;51.258;4.436;2023-11-19T00:02:45;11.13;;;3.27;;
10100;SDS011;5090;51.258;4.436;2023-11-19T00:05:18;8.67;;;4.10;;
10100;SDS011;5090;51.258;4.436;2023-11-19T00:07:46;9.37;;;4.03;;
10100;SDS011;5090;51.258;4.436;2023-11-19T00:10:15;10.77;;;3.43;;
10100;SDS011;5090;51.258;4.436;2023-11-19T00:12:45;17.23;;;3.90;;
10100;SDS011;5090;51.258;4.436;2023-11-19T00:15:12;19.43;;;3.93;;
10100;SDS011;5090;51.258;4.436;2023-11-19T00:17:41;11.10;;;3.87;;
10100;SDS011;5090;51.258;4.436;2023-11-19T00:20:09;9.80;;;3.50;;
10100;SDS011;5090;51.258;4.436;2023-11-19T00:22:37;19.03;;;3.87;;
10100;SDS011;5090;51.258;4.436;2023-11-19T00:25:05;16.80;;;3.53;;
10100;SDS011;5090;51.258;4.436;2023-11-19T00:27:34;16.97;;;3.80;;
10100;SDS011;5090;51.258;4.436;2023-11-19T00:30:02;14.20;;;3.27;;
10100;SDS011;5090;51.258;4.436;2023-11-19T00:32:31;16.73;;;3.47;;
10100;SDS011;5090;51.258;4.436;2023-11-19T00:34:59;14.80;;;4.00;;
10100;SDS011;5090;51.258;4.436;2023-11-19T00:37:27;13.27;;;3.83;;
10100;SDS011;5090;51.258;4.436;2023-11-19T00:39:55;15.13;;;5.10;;
10100;SDS011;5090;51.258;4.436;2023-11-19T00:42:23;21.47;;;5.70;;
10100;SDS011;5090;51.258;4.436;2023-11-19T00:44:51;14.67;;;3.77;;
10100;SDS011;5090;51.258;4.436;2023-11-19T00:47:20;15.07;;;4.17;;
10100;SDS011;5090;51.258;4.436;2023-11-19T00:49:48;15.47;;;3.60;;
10100;SDS011;5090;51.258;4.436;2023-11-19T00:52:16;14.00;;;3.27;;
10100;SDS011;5090;51.258;4.436;2023-11-19T00:54:44;13.13;;;3.80;;
10100;SDS011;5090;51.258;4.436;2023-11-19T00:57:12;13.47;;;3.30;;
10100;SDS011;5090;51.258;4.436;2023-11-19T00:59:42;18.50;;;3.77;;
10100;SDS011;5090;51.258;4.436;2023-11-19T01:02:10;22.47;;;4.30;;
10100;SDS011;5090;51.258;4.436;2023-11-19T01:04:38;19.13;;;4.50;;
10100;SDS011;5090;51.258;4.436;2023-11-19T01:07:06;20.63;;;4.80;;
10100;SDS011;5090;51.258;4.436;2023-11-19T01:09:34;19.43;;;4.77;;
10100;SDS011;5090;51.258;4.436;2023-11-19T01:12:03;19.80;;;4.77;;
10100;SDS011;5090;51.258;4.436;2023-11-19T01:14:31;19.80;;;4.43;;
10100;SDS011;5090;51.258;4.436;2023-11-19T01:17:00;27.77;;;4.77;;
10100;SDS011;5090;51.258;4.436;2023-11-19T01:19:27;25.90;;;4.17;;
10100;SDS011;5090;51.258;4.436;2023-11-19T01:21:56;18.40;;;4.10;;
10100;SDS011;5090;51.258;4.436;2023-11-19T01:24:24;22.47;;;4.17;;
10100;SDS011;5090;51.258;4.436;2023-11-19T01:26:52;21.77;;;3.90;;
10100;SDS011;5090;51.258;4.436;2023-11-19T01:29:20;29.50;;;4.83;;
10100;SDS011;5090;51.258;4.436;2023-11-19T01:31:55;26.93;;;4.47;;
10100;SDS011;5090;51.258;4.436;2023-11-19T01:34:24;20.87;;;4.10;;
10100;SDS011;5090;51.258;4.436;2023-11-19T01:36:52;24.53;;;4.17;;
10100;SDS011;5090;51.258;4.436;2023-11-19T01:39:21;37.10;;;5.43;;
10100;SDS011;5090;51.258;4.436;2023-11-19T01:41:49;33.93;;;4.83;;
10100;SDS011;5090;51.258;4.436;2023-11-19T01:44:18;30.40;;;5.10;;
10100;SDS011;5090;51.258;4.436;2023-11-19T01:46:46;28.10;;;4.67;;
10100;SDS011;5090;51.258;4.436;2023-11-19T01:49:15;31.87;;;5.50;;
10100;SDS011;5090;51.258;4.436;2023-11-19T01:51:43;31.07;;;4.93;;
10100;SDS011;5090;51.258;4.436;2023-11-19T01:54:12;34.40;;;5.67;;
10100;SDS011;5090;51.258;4.436;2023-11-19T01:56:41;28.83;;;4.63;;
10100;SDS011;5090;51.258;4.436;2023-11-19T01:59:11;32.67;;;5.53;;
10100;SDS011;5090;51.258;4.436;2023-11-19T02:01:40;21.33;;;5.00;;
10100;SDS011;5090;51.258;4.436;2023-11-19T02:04:08;30.73;;;4.70;;
10100;SDS011;5090;51.258;4.436;2023-11-19T02:06:37;25.77;;;4.27;;
10100;SDS011;5090;51.258;4.436;2023-11-19T02:09:04;28.50;;;4.47;;
10100;SDS011;5090;51.258;4.436;2023-11-19T02:11:33;27.53;;;4.57;;
10100;SDS011;5090;51.258;4.436;2023-11-19T02:14:01;27.90;;;4.60;;
10100;SDS011;5090;51.258;4.436;2023-11-19T02:16:29;23.27;;;4.87;;
10100;SDS011;5090;51.258;4.436;2023-11-19T02:18:57;28.67;;;4.43;;
10100;SDS011;5090;51.258;4.436;2023-11-19T02:21:25;32.57;;;5.40;;
10100;SDS011;5090;51.258;4.436;2023-11-19T02:23:55;41.10;;;6.03;;
10100;SDS011;5090;51.258;4.436;2023-11-19T02:26:26;36.60;;;5.47;;
10100;SDS011;5090;51.258;4.436;2023-11-19T02:28:52;42.53;;;6.93;;
10100;SDS011;5090;51.258;4.436;2023-11-19T02:31:21;36.70;;;5.63;;
10100;SDS011;5090;51.258;4.436;2023-11-19T02:33:49;40.87;;;6.03;;
10100;SDS011;5090;51.258;4.436;2023-11-19T02:36:17;26.07;;;5.10;;
10100;SDS011;5090;51.258;4.436;2023-11-19T02:38:45;39.47;;;7.37;;
10100;SDS011;5090;51.258;4.436;2023-11-19T02:41:14;32.77;;;5.67;;
10100;SDS011;5090;51.258;4.436;2023-11-19T02:43:42;28.67;;;5.53;;
10100;SDS011;5090;51.258;4.436;2023-11-19T02:46:10;29.07;;;5.00;;
10100;SDS011;5090;51.258;4.436;2023-11-19T02:48:38;33.97;;;4.97;;
10100;SDS011;5090;51.258;4.436;2023-11-19T02:51:07;43.23;;;5.77;;
10100;SDS011;5090;51.258;4.436;2023-11-19T02:53:36;28.33;;;5.83;;
10100;SDS011;5090;51.258;4.436;2023-11-19T02:56:05;46.73;;;6.77;;
10100;SDS011;5090;51.258;4.436;2023-11-19T02:58:33;30.83;;;6.00;;
10100;SDS011;5090;51.258;4.436;2023-11-19T03:01:02;36.13;;;6.67;;
10100;SDS011;5090;51.258;4.436;2023-11-19T03:03:30;44.07;;;6.53;;
10100;SDS011;5090;51.258;4.436;2023-11-19T03:05:58;33.20;;;5.07;;
10100;SDS011;5090;51.258;4.436;2023-11-19T03:08:26;31.37;;;5.47;;
10100;SDS011;5090;51.258;4.436;2023-11-19T03:10:54;34.63;;;5.83;;
10100;SDS011;5090;51.258;4.436;2023-11-19T03:13:23;38.13;;;5.80;;
10100;SDS011;5090;51.258;4.436;2023-11-19T03:15:51;28.90;;;5.30;;
10100;SDS011;5090;51.258;4.436;2023-11-19T03:18:19;35.47;;;6.07;;
10100;SDS011;5090;51.258;4.436;2023-11-19T03:20:47;36.53;;;5.60;;
10100;SDS011;5090;51.258;4.436;2023-11-19T03:23:15;41.50;;;5.40;;
10100;SDS011;5090;51.258;4.436;2023-11-19T03:25:44;24.60;;;4.63;;
10100;SDS011;5090;51.258;4.436;2023-11-19T03:28:12;28.47;;;5.77;;
10100;SDS011;5090;51.258;4.436;2023-11-19T03:30:40;37.43;;;5.53;;
10100;SDS011;5090;51.258;4.436;2023-11-19T03:33:08;29.30;;;5.67;;
10100;SDS011;5090;51.258;4.436;2023-11-19T03:35:36;30.57;;;6.43;;
10100;SDS011;5090;51.258;4.436;2023-11-19T03:38:05;32.27;;;5.13;;
10100;SDS011;5090;51.258;4.436;2023-11-19T03:40:33;32.60;;;5.53;;
10100;SDS011;5090;51.258;4.436;2023-11-19T03:43:01;26.63;;;4.87;;
10100;SDS011;5090;51.258;4.436;2023-11-19T03:45:29;37.63;;;6.83;;
10100;SDS011;5090;51.258;4.436;2023-11-19T03:47:57;31.67;;;5.13;;
10100;SDS011;5090;51.258;4.436;2023-11-19T03:50:25;33.40;;;5.50;;
10100;SDS011;5090;51.258;4.436;2023-11-19T03:52:54;40.93;;;6.50;;
10100;SDS011;5090;51.258;4.436;2023-11-19T03:55:22;37.60;;;6.00;;
10100;SDS011;5090;51.258;4.436;2023-11-19T03:57:50;34.37;;;4.63;;
10100;SDS011;5090;51.258;4.436;2023-11-19T04:00:18;35.97;;;5.93;;
10100;SDS011;5090;51.258;4.436;2023-11-19T04:02:47;36.60;;;6.27;;
10100;SDS011;5090;51.258;4.436;2023-11-19T04:05:15;46.10;;;6.50;;
10100;SDS011;5090;51.258;4.436;2023-11-19T04:07:43;34.37;;;5.83;;
10100;SDS011;5090;51.258;4.436;2023-11-19T04:10:11;40.93;;;6.23;;
10100;SDS011;5090;51.258;4.436;2023-11-19T04:12:39;33.60;;;5.00;;
10100;SDS011;5090;51.258;4.436;2023-11-19T04:15:08;28.13;;;5.93;;
10100;SDS011;5090;51.258;4.436;2023-11-19T04:17:36;32.90;;;5.00;;
10100;SDS011;5090;51.258;4.436;2023-11-19T04:20:04;44.83;;;6.37;;
10100;SDS011;5090;51.258;4.436;2023-11-19T04:22:33;41.30;;;6.13;;
10100;SDS011;5090;51.258;4.436;2023-11-19T04:25:01;43.30;;;6.93;;
10100;SDS011;5090;51.258;4.436;2023-11-19T04:27:29;40.07;;;6.13;;
10100;SDS011;5090;51.258;4.436;2023-11-19T04:29:57;34.83;;;5.80;;
10100;SDS011;5090;51.258;4.436;2023-11-19T04:32:26;41.17;;;7.07;;
10100;SDS011;5090;51.258;4.436;2023-11-19T04:34:54;44.50;;;7.47;;
10100;SDS011;5090;51.258;4.436;2023-11-19T04:37:22;37.13;;;6.40;;
10100;SDS011;5090;51.258;4.436;2023-11-19T04:39:50;27.20;;;5.13;;
10100;SDS011;5090;51.258;4.436;2023-11-19T04:42:18;35.63;;;5.17;;
10100;SDS011;5090;51.258;4.436;2023-11-19T04:44:46;31.37;;;5.20;;
10100;SDS011;5090;51.258;4.436;2023-11-19T04:47:15;35.80;;;5.37;;
10100;SDS011;5090;51.258;4.436;2023-11-19T04:49:43;35.27;;;6.13;;
10100;SDS011;5090;51.258;4.436;2023-11-19T04:52:11;33.73;;;6.33;;
10100;SDS011;5090;51.258;4.436;2023-11-19T04:54:41;38.80;;;6.40;;
10100;SDS011;5090;51.258;4.436;2023-11-19T04:57:09;34.60;;;5.73;;
10100;SDS011;5090;51.258;4.436;2023-11-19T04:59:39;41.57;;;6.93;;
10100;SDS011;5090;51.258;4.436;2023-11-19T05:02:08;44.70;;;6.10;;
10100;SDS011;5090;51.258;4.436;2023-11-19T05:04:36;45.13;;;7.10;;
10100;SDS011;5090;51.258;4.436;2023-11-19T05:07:04;40.93;;;6.47;;
10100;SDS011;5090;51.258;4.436;2023-11-19T05:09:32;28.00;;;4.77;;
10100;SDS011;5090;51.258;4.436;2023-11-19T05:12:00;47.13;;;7.30;;
10100;SDS011;5090;51.258;4.436;2023-11-19T05:14:28;32.93;;;6.27;;
10100;SDS011;5090;51.258;4.436;2023-11-19T05:16:57;43.20;;;6.13;;
10100;SDS011;5090;51.258;4.436;2023-11-19T05:19:25;37.03;;;6.33;;
10100;SDS011;5090;51.258;4.436;2023-11-19T05:21:53;34.97;;;5.73;;
10100;SDS011;5090;51.258;4.436;2023-11-19T05:24:21;34.33;;;6.77;;
10100;SDS011;5090;51.258;4.436;2023-11-19T05:26:49;28.33;;;6.07;;
10100;SDS011;5090;51.258;4.436;2023-11-19T05:29:18;43.53;;;6.30;;
10100;SDS011;5090;51.258;4.436;2023-11-19T05:31:46;39.30;;;6.10;;
10100;SDS011;5090;51.258;4.436;2023-11-19T05:34:14;35.00;;;5.70;;
10100;SDS011;5090;51.258;4.436;2023-11-19T05:36:42;32.53;;;5.87;;
10100;SDS011;5090;51.258;4.436;2023-11-19T05:39:10;26.13;;;5.13;;
10100;SDS011;5090;51.258;4.436;2023-11-19T05:41:39;46.00;;;6.03;;
10100;SDS011;5090;51.258;4.436;2023-11-19T05:44:07;40.90;;;6.87;;
10100;SDS011;5090;51.258;4.436;2023-11-19T05:46:35;30.10;;;6.03;;
10100;SDS011;5090;51.258;4.436;2023-11-19T05:49:03;38.57;;;5.60;;
10100;SDS011;5090;51.258;4.436;2023-11-19T05:51:31;29.47;;;5.70;;
10100;SDS011;5090;51.258;4.436;2023-11-19T05:53:59;40.00;;;5.33;;
10100;SDS011;5090;51.258;4.436;2023-11-19T05:56:28;37.93;;;6.77;;
10100;SDS011;5090;51.258;4.436;2023-11-19T05:58:56;32.87;;;6.37;;
10100;SDS011;5090;51.258;4.436;2023-11-19T06:01:24;34.73;;;5.27;;
10100;SDS011;5090;51.258;4.436;2023-11-19T06:03:53;39.83;;;6.10;;
10100;SDS011;5090;51.258;4.436;2023-11-19T06:06:21;34.60;;;6.30;;
10100;SDS011;5090;51.258;4.436;2023-11-19T06:08:49;33.30;;;5.53;;
10100;SDS011;5090;51.258;4.436;2023-11-19T06:11:17;38.93;;;5.90;;
10100;SDS011;5090;51.258;4.436;2023-11-19T06:13:46;34.40;;;5.67;;
10100;SDS011;5090;51.258;4.436;2023-11-19T06:16:14;35.10;;;6.37;;
10100;SDS011;5090;51.258;4.436;2023-11-19T06:18:42;32.50;;;5.43;;
10100;SDS011;5090;51.258;4.436;2023-11-19T06:21:11;52.23;;;6.20;;
10100;SDS011;5090;51.258;4.436;2023-11-19T06:23:39;28.80;;;5.57;;
10100;SDS011;5090;51.258;4.436;2023-11-19T06:26:08;36.17;;;5.67;;
10100;SDS011;5090;51.258;4.436;2023-11-19T06:28:37;40.83;;;6.67;;
10100;SDS011;5090;51.258;4.436;2023-11-19T06:31:05;37.43;;;5.77;;
10100;SDS011;5090;51.258;4.436;2023-11-19T06:33:33;40.27;;;6.03;;
10100;SDS011;5090;51.258;4.436;2023-11-19T06:36:02;47.37;;;6.20;;
10100;SDS011;5090;51.258;4.436;2023-11-19T06:38:30;33.83;;;5.20;;
10100;SDS011;5090;51.258;4.436;2023-11-19T06:40:58;43.83;;;6.67;;
10100;SDS011;5090;51.258;4.436;2023-11-19T06:43:26;41.33;;;6.60;;
10100;SDS011;5090;51.258;4.436;2023-11-19T06:45:55;41.17;;;6.87;;
10100;SDS011;5090;51.258;4.436;2023-11-19T06:48:23;40.90;;;6.37;;
10100;SDS011;5090;51.258;4.436;2023-11-19T06:50:51;40.30;;;5.80;;
10100;SDS011;5090;51.258;4.436;2023-11-19T06:53:19;39.00;;;6.13;;
10100;SDS011;5090;51.258;4.436;2023-11-19T06:55:48;40.13;;;6.57;;
10100;SDS011;5090;51.258;4.436;2023-11-19T06:58:16;38.47;;;6.37;;
10100;SDS011;5090;51.258;4.436;2023-11-19T07:00:44;39.27;;;5.30;;
10100;SDS011;5090;51.258;4.436;2023-11-19T07:03:13;37.43;;;5.37;;
10100;SDS011;5090;51.258;4.436;2023-11-19T07:05:41;30.00;;;4.83;;
10100;SDS011;5090;51.258;4.436;2023-11-19T07:08:13;28.60;;;6.17;;
10100;SDS011;5090;51.258;4.436;2023-11-19T07:10:41;43.00;;;5.83;;
10100;SDS011;5090;51.258;4.436;2023-11-19T07:13:10;34.07;;;5.97;;
10100;SDS011;5090;51.258;4.436;2023-11-19T07:15:38;38.43;;;6.47;;
10100;SDS011;5090;51.258;4.436;2023-11-19T07:18:07;46.77;;;6.13;;
10100;SDS011;5090;51.258;4.436;2023-11-19T07:20:36;35.47;;;5.50;;
10100;SDS011;5090;51.258;4.436;2023-11-19T07:23:04;37.57;;;7.37;;
10100;SDS011;5090;51.258;4.436;2023-11-19T07:25:32;33.00;;;6.70;;
10100;SDS011;5090;51.258;4.436;2023-11-19T07:28:01;42.70;;;5.67;;
10100;SDS011;5090;51.258;4.436;2023-11-19T07:30:29;43.23;;;7.83;;
10100;SDS011;5090;51.258;4.436;2023-11-19T07:32:57;40.93;;;5.40;;
10100;SDS011;5090;51.258;4.436;2023-11-19T07:35:25;39.80;;;5.27;;
10100;SDS011;5090;51.258;4.436;2023-11-19T07:37:54;37.37;;;6.20;;
10100;SDS011;5090;51.258;4.436;2023-11-19T07:40:23;37.43;;;6.47;;
10100;SDS011;5090;51.258;4.436;2023-11-19T07:42:51;35.23;;;6.20;;
10100;SDS011;5090;51.258;4.436;2023-11-19T07:45:19;37.50;;;7.23;;
10100;SDS011;5090;51.258;4.436;2023-11-19T07:47:47;31.83;;;6.20;;
10100;SDS011;5090;51.258;4.436;2023-11-19T07:50:15;35.40;;;5.60;;
10100;SDS011;5090;51.258;4.436;2023-11-19T07:52:44;50.03;;;6.60;;
10100;SDS011;5090;51.258;4.436;2023-11-19T07:55:12;34.13;;;6.43;;
10100;SDS011;5090;51.258;4.436;2023-11-19T07:57:40;40.40;;;5.97;;
10100;SDS011;5090;51.258;4.436;2023-11-19T08:00:08;38.87;;;6.17;;
10100;SDS011;5090;51.258;4.436;2023-11-19T08:02:37;32.53;;;6.47;;
10100;SDS011;5090;51.258;4.436;2023-11-19T08:05:05;34.97;;;5.90;;
10100;SDS011;5090;51.258;4.436;2023-11-19T08:07:33;37.30;;;6.83;;
10100;SDS011;5090;51.258;4.436;2023-11-19T08:10:02;42.47;;;7.90;;
10100;SDS011;5090;51.258;4.436;2023-11-19T08:12:30;36.77;;;6.03;;
10100;SDS011;5090;51.258;4.436;2023-11-19T08:14:58;32.20;;;5.90;;
10100;SDS011;5090;51.258;4.436;2023-11-19T08:17:26;38.40;;;5.90;;
10100;SDS011;5090;51.258;4.436;2023-11-19T08:19:55;36.53;;;5.63;;
10100;SDS011;5090;51.258;4.436;2023-11-19T08:22:23;39.87;;;7.27;;
10100;SDS011;5090;51.258;4.436;2023-11-19T08:24:51;39.90;;;6.17;;
10100;SDS011;5090;51.258;4.436;2023-11-19T08:27:20;31.67;;;5.93;;
10100;SDS011;5090;51.258;4.436;2023-11-19T08:29:48;34.23;;;5.80;;
10100;SDS011;5090;51.258;4.436;2023-11-19T08:32:16;41.10;;;6.20;;
10100;SDS011;5090;51.258;4.436;2023-11-19T08:34:44;40.43;;;6.60;;
10100;SDS011;5090;51.258;4.436;2023-11-19T08:37:13;34.43;;;6.17;;
10100;SDS011;5090;51.258;4.436;2023-11-19T08:39:41;35.50;;;6.20;;
10100;SDS011;5090;51.258;4.436;2023-11-19T08:42:09;37.27;;;6.50;;
10100;SDS011;5090;51.258;4.436;2023-11-19T08:44:37;36.50;;;6.23;;
10100;SDS011;5090;51.258;4.436;2023-11-19T08:47:10;29.73;;;5.63;;
10100;SDS011;5090;51.258;4.436;2023-11-19T08:49:39;26.57;;;5.30;;
10100;SDS011;5090;51.258;4.436;2023-11-19T08:52:09;28.03;;;5.20;;
10100;SDS011;5090;51.258;4.436;2023-11-19T08:54:37;35.70;;;6.47;;
10100;SDS011;5090;51.258;4.436;2023-11-19T08:57:07;27.53;;;5.47;;
10100;SDS011;5090;51.258;4.436;2023-11-19T08:59:35;40.53;;;5.77;;
10100;SDS011;5090;51.258;4.436;2023-11-19T09:02:06;38.60;;;6.43;;
10100;SDS011;5090;51.258;4.436;2023-11-19T09:04:35;35.20;;;5.60;;
10100;SDS011;5090;51.258;4.436;2023-11-19T09:07:03;32.00;;;6.20;;
10100;SDS011;5090;51.258;4.436;2023-11-19T09:09:31;35.23;;;7.37;;
10100;SDS011;5090;51.258;4.436;2023-11-19T09:11:59;33.60;;;6.00;;
10100;SDS011;5090;51.258;4.436;2023-11-19T09:14:28;37.80;;;5.37;;
10100;SDS011;5090;51.258;4.436;2023-11-19T09:16:57;32.67;;;5.23;;
10100;SDS011;5090;51.258;4.436;2023-11-19T09:19:26;33.00;;;5.50;;
10100;SDS011;5090;51.258;4.436;2023-11-19T09:21:54;28.10;;;5.30;;
10100;SDS011;5090;51.258;4.436;2023-11-19T09:24:22;26.27;;;5.13;;
10100;SDS011;5090;51.258;4.436;2023-11-19T09:26:50;33.63;;;5.47;;
10100;SDS011;5090;51.258;4.436;2023-11-19T09:29:18;32.27;;;5.43;;
10100;SDS011;5090;51.258;4.436;2023-11-19T09:31:47;33.87;;;5.90;;
10100;SDS011;5090;51.258;4.436;2023-11-19T09:34:15;29.00;;;5.33;;
10100;SDS011;5090;51.258;4.436;2023-11-19T09:36:43;30.17;;;4.93;;
10100;SDS011;5090;51.258;4.436;2023-11-19T09:39:12;34.37;;;6.60;;
10100;SDS011;5090;51.258;4.436;2023-11-19T09:41:44;29.60;;;5.67;;
10100;SDS011;5090;51.258;4.436;2023-11-19T09:44:13;30.47;;;5.67;;
10100;SDS011;5090;51.258;4.436;2023-11-19T09:46:42;28.83;;;6.40;;
10100;SDS011;5090;51.258;4.436;2023-11-19T09:49:10;26.83;;;4.73;;
10100;SDS011;5090;51.258;4.436;2023-11-19T09:51:39;31.93;;;5.60;;
10100;SDS011;5090;51.258;4.436;2023-11-19T09:54:07;24.10;;;4.57;;
10100;SDS011;5090;51.258;4.436;2023-11-19T09:56:36;21.53;;;5.00;;
10100;SDS011;5090;51.258;4.436;2023-11-19T09:59:04;28.77;;;5.20;;
10100;SDS011;5090;51.258;4.436;2023-11-19T10:01:32;29.50;;;5.57;;
10100;SDS011;5090;51.258;4.436;2023-11-19T10:04:00;28.57;;;4.73;;
10100;SDS011;5090;51.258;4.436;2023-11-19T10:06:28;30.83;;;5.00;;
10100;SDS011;5090;51.258;4.436;2023-11-19T10:08:57;18.83;;;4.60;;
10100;SDS011;5090;51.258;4.436;2023-11-19T10:11:25;26.40;;;4.97;;
10100;SDS011;5090;51.258;4.436;2023-11-19T10:13:53;31.23;;;5.40;;
10100;SDS011;5090;51.258;4.436;2023-11-19T10:16:22;30.97;;;4.70;;
10100;SDS011;5090;51.258;4.436;2023-11-19T10:18:49;29.00;;;5.27;;
10100;SDS011;5090;51.258;4.436;2023-11-19T10:21:18;25.40;;;4.10;;
10100;SDS011;5090;51.258;4.436;2023-11-19T10:23:48;26.77;;;5.03;;
10100;SDS011;5090;51.258;4.436;2023-11-19T10:26:16;26.60;;;5.37;;
10100;SDS011;5090;51.258;4.436;2023-11-19T10:28:45;28.23;;;5.17;;
10100;SDS011;5090;51.258;4.436;2023-11-19T10:31:13;23.33;;;4.60;;
10100;SDS011;5090;51.258;4.436;2023-11-19T10:33:40;22.00;;;3.70;;
10100;SDS011;5090;51.258;4.436;2023-11-19T10:36:09;26.73;;;4.77;;
10100;SDS011;5090;51.258;4.436;2023-11-19T10:38:37;22.37;;;4.53;;
10100;SDS011;5090;51.258;4.436;2023-11-19T10:41:05;20.00;;;4.13;;
10100;SDS011;5090;51.258;4.436;2023-11-19T10:43:43;23.57;;;3.97;;
10100;SDS011;5090;51.258;4.436;2023-11-19T10:46:12;27.00;;;4.73;;
10100;SDS011;5090;51.258;4.436;2023-11-19T10:48:40;24.47;;;4.40;;
10100;SDS011;5090;51.258;4.436;2023-11-19T10:51:08;27.03;;;4.83;;
10100;SDS011;5090;51.258;4.436;2023-11-19T10:53:37;34.63;;;6.40;;
10100;SDS011;5090;51.258;4.436;2023-11-19T10:56:06;32.47;;;6.53;;
10100;SDS011;5090;51.258;4.436;2023-11-19T10:58:33;27.83;;;5.47;;
10100;SDS011;5090;51.258;4.436;2023-11-19T11:01:02;26.53;;;5.07;;
10100;SDS011;5090;51.258;4.436;2023-11-19T11:03:31;31.43;;;5.00;;
10100;SDS011;5090;51.258;4.436;2023-11-19T11:05:58;28.40;;;4.80;;
10100;SDS011;5090;51.258;4.436;2023-11-19T11:08:26;27.63;;;5.17;;
10100;SDS011;5090;51.258;4.436;2023-11-19T11:10:55;23.77;;;4.73;;
10100;SDS011;5090;51.258;4.436;2023-11-19T11:13:23;28.23;;;5.37;;
10100;SDS011;5090;51.258;4.436;2023-11-19T11:15:51;27.03;;;5.40;;
10100;SDS011;5090;51.258;4.436;2023-11-19T11:18:20;31.57;;;4.83;;
10100;SDS011;5090;51.258;4.436;2023-11-19T11:20:48;25.50;;;4.73;;
10100;SDS011;5090;51.258;4.436;2023-11-19T11:25:58;27.83;;;5.83;;
10100;SDS011;5090;51.258;4.436;2023-11-19T11:28:31;33.47;;;4.50;;
10100;SDS011;5090;51.258;4.436;2023-11-19T11:31:07;26.93;;;5.80;;
10100;SDS011;5090;51.258;4.436;2023-11-19T11:33:40;27.67;;;5.30;;
10100;SDS011;5090;51.258;4.436;2023-11-19T11:36:09;21.03;;;4.67;;
10100;SDS011;5090;51.258;4.436;2023-11-19T11:38:36;33.17;;;5.07;;
10100;SDS011;5090;51.258;4.436;2023-11-19T11:43:53;24.80;;;4.50;;
10100;SDS011;5090;51.258;4.436;2023-11-19T11:48:55;25.30;;;4.90;;
10100;SDS011;5090;51.258;4.436;2023-11-19T11:51:57;19.90;;;4.23;;
10100;SDS011;5090;51.258;4.436;2023-11-19T11:53:52;26.13;;;4.83;;
10100;SDS011;5090;51.258;4.436;2023-11-19T11:56:21;16.97;;;4.20;;
10100;SDS011;5090;51.258;4.436;2023-11-19T11:58:49;24.93;;;5.27;;
10100;SDS011;5090;51.258;4.436;2023-11-19T12:01:17;24.73;;;5.93;;
10100;SDS011;5090;51.258;4.436;2023-11-19T12:03:45;27.03;;;4.13;;
10100;SDS011;5090;51.258;4.436;2023-11-19T12:06:13;23.73;;;4.33;;
10100;SDS011;5090;51.258;4.436;2023-11-19T12:08:42;23.17;;;4.73;;
10100;SDS011;5090;51.258;4.436;2023-11-19T12:11:10;20.23;;;4.20;;
10100;SDS011;5090;51.258;4.436;2023-11-19T12:13:44;29.57;;;5.10;;
10100;SDS011;5090;51.258;4.436;2023-11-19T12:16:10;19.67;;;4.33;;
10100;SDS011;5090;51.258;4.436;2023-11-19T12:18:39;28.40;;;5.50;;
10100;SDS011;5090;51.258;4.436;2023-11-19T12:21:07;25.43;;;4.13;;
10100;SDS011;5090;51.258;4.436;2023-11-19T12:23:35;26.80;;;5.63;;
10100;SDS011;5090;51.258;4.436;2023-11-19T12:26:03;22.63;;;4.20;;
10100;SDS011;5090;51.258;4.436;2023-11-19T12:28:32;26.93;;;4.30;;
10100;SDS011;5090;51.258;4.436;2023-11-19T12:33:35;20.80;;;4.30;;
10100;SDS011;5090;51.258;4.436;2023-11-19T12:36:02;29.43;;;4.67;;
10100;SDS011;5090;51.258;4.436;2023-11-19T12:38:30;22.23;;;4.73;;
10100;SDS011;5090;51.258;4.436;2023-11-19T12:41:05;29.87;;;4.97;;
10100;SDS011;5090;51.258;4.436;2023-11-19T12:43:33;24.90;;;4.67;;
10100;SDS011;5090;51.258;4.436;2023-11-19T12:46:02;23.67;;;5.13;;
10100;SDS011;5090;51.258;4.436;2023-11-19T12:48:30;21.37;;;4.30;;
10100;SDS011;5090;51.258;4.436;2023-11-19T12:50:58;30.13;;;5.53;;
10100;SDS011;5090;51.258;4.436;2023-11-19T12:53:27;24.50;;;4.47;;
10100;SDS011;5090;51.258;4.436;2023-11-19T12:55:55;25.13;;;4.37;;
10100;SDS011;5090;51.258;4.436;2023-11-19T12:58:30;25.47;;;5.07;;
10100;SDS011;5090;51.258;4.436;2023-11-19T13:01:00;23.70;;;4.63;;
10100;SDS011;5090;51.258;4.436;2023-11-19T13:03:31;16.97;;;4.23;;
10100;SDS011;5090;51.258;4.436;2023-11-19T13:06:04;25.93;;;4.73;;
10100;SDS011;5090;51.258;4.436;2023-11-19T13:11:06;29.57;;;4.83;;
10100;SDS011;5090;51.258;4.436;2023-11-19T13:16:09;24.57;;;5.07;;
10100;SDS011;5090;51.258;4.436;2023-11-19T13:18:37;25.47;;;5.43;;
10100;SDS011;5090;51.258;4.436;2023-11-19T13:21:05;22.47;;;5.07;;
10100;SDS011;5090;51.258;4.436;2023-11-19T13:23:33;18.73;;;4.80;;
10100;SDS011;5090;51.258;4.436;2023-11-19T13:26:02;25.67;;;5.13;;
10100;SDS011;5090;51.258;4.436;2023-11-19T13:28:30;27.27;;;5.43;;
10100;SDS011;5090;51.258;4.436;2023-11-19T13:30:58;22.20;;;4.67;;
10100;SDS011;5090;51.258;4.436;2023-11-19T13:33:26;22.87;;;4.60;;
10100;SDS011;5090;51.258;4.436;2023-11-19T13:35:55;26.97;;;7.90;;
10100;SDS011;5090;51.258;4.436;2023-11-19T13:38:23;29.13;;;4.50;;
10100;SDS011;5090;51.258;4.436;2023-11-19T13:40:51;19.60;;;4.00;;
10100;SDS011;5090;51.258;4.436;2023-11-19T13:43:20;13.07;;;3.97;;
10100;SDS011;5090;51.258;4.436;2023-11-19T13:45:49;23.50;;;5.30;;
10100;SDS011;5090;51.258;4.436;2023-11-19T13:48:18;26.77;;;4.87;;
10100;SDS011;5090;51.258;4.436;2023-11-19T13:50:46;21.27;;;4.33;;
10100;SDS011;5090;51.258;4.436;2023-11-19T13:53:15;25.43;;;5.00;;
10100;SDS011;5090;51.258;4.436;2023-11-19T13:55:43;24.97;;;4.07;;
10100;SDS011;5090;51.258;4.436;2023-11-19T13:58:12;17.50;;;5.03;;
10100;SDS011;5090;51.258;4.436;2023-11-19T14:00:41;27.33;;;5.03;;
10100;SDS011;5090;51.258;4.436;2023-11-19T14:03:10;24.87;;;4.17;;
10100;SDS011;5090;51.258;4.436;2023-11-19T14:05:40;31.37;;;5.07;;
10100;SDS011;5090;51.258;4.436;2023-11-19T14:08:08;19.60;;;4.00;;
10100;SDS011;5090;51.258;4.436;2023-11-19T14:10:39;21.03;;;4.17;;
10100;SDS011;5090;51.258;4.436;2023-11-19T14:13:08;23.27;;;5.33;;
10100;SDS011;5090;51.258;4.436;2023-11-19T14:15:37;29.77;;;5.87;;
10100;SDS011;5090;51.258;4.436;2023-11-19T14:18:05;23.57;;;4.87;;
10100;SDS011;5090;51.258;4.436;2023-11-19T14:20:34;26.30;;;5.53;;
10100;SDS011;5090;51.258;4.436;2023-11-19T14:23:03;31.00;;;9.03;;
10100;SDS011;5090;51.258;4.436;2023-11-19T14:25:34;24.40;;;6.40;;
10100;SDS011;5090;51.258;4.436;2023-11-19T14:28:02;31.53;;;6.67;;
10100;SDS011;5090;51.258;4.436;2023-11-19T14:30:31;26.97;;;4.93;;
10100;SDS011;5090;51.258;4.436;2023-11-19T14:33:00;23.07;;;4.47;;
10100;SDS011;5090;51.258;4.436;2023-11-19T14:35:29;24.63;;;5.47;;
10100;SDS011;5090;51.258;4.436;2023-11-19T14:37:57;28.53;;;5.30;;
10100;SDS011;5090;51.258;4.436;2023-11-19T14:40:25;21.47;;;5.07;;
10100;SDS011;5090;51.258;4.436;2023-11-19T14:42:54;22.67;;;5.20;;
10100;SDS011;5090;51.258;4.436;2023-11-19T14:45:22;22.97;;;5.20;;
10100;SDS011;5090;51.258;4.436;2023-11-19T14:47:50;26.20;;;4.70;;
10100;SDS011;5090;51.258;4.436;2023-11-19T14:50:19;27.87;;;3.93;;
10100;SDS011;5090;51.258;4.436;2023-11-19T14:52:47;24.10;;;4.13;;
10100;SDS011;5090;51.258;4.436;2023-11-19T14:55:15;22.97;;;4.00;;
10100;SDS011;5090;51.258;4.436;2023-11-19T14:57:44;30.07;;;4.27;;
10100;SDS011;5090;51.258;4.436;2023-11-19T15:00:13;23.67;;;4.50;;
10100;SDS011;5090;51.258;4.436;2023-11-19T15:02:41;23.97;;;4.03;;
10100;SDS011;5090;51.258;4.436;2023-11-19T15:05:09;19.27;;;4.60;;
10100;SDS011;5090;51.258;4.436;2023-11-19T15:07:38;19.73;;;3.90;;
10100;SDS011;5090;51.258;4.436;2023-11-19T15:10:06;21.90;;;4.70;;